Flight Track Log - Related Links

Times and Time Zones

All times are in EDT time to prevent confusion due to time zone crossing. See the UAL5887 flight status page for this flight to view local times or setup timezone preferences in your user account.

Time Position Orientation Groundspeed Altitude Reporting Facility
EDT Latitude Longitude Course Direction KTS MPH feet Rate Location/Type
Tue 12:02:17 PM 42.0167 -87.8833 56° Northeast 164 189 2,100  Level Chicago TRACON
Tue 12:03:12 PM 42.0500 -87.8167 56° Northeast 248 285 3,400 2,087 Climbing Chicago TRACON
Tue 12:05:21 PM 42.0847 -87.6203 77° East 289 333 8,500 2,419 Climbing Chicago Center
Tue 12:06:23 PM 42.0967 -87.4814 83° East 306 352 11,100 2,226 Climbing Chicago Center
Tue 12:07:25 PM 42.1092 -87.3542 82° East 334 384 13,100 1,610 Climbing Chicago Center
Tue 12:08:26 PM 42.1222 -87.2158 83° East 362 417 14,400 1,220 Climbing Chicago Center
Tue 12:09:28 PM 42.1347 -87.0647 84° East 395 455 15,600 1,355 Climbing Chicago Center
Tue 12:10:30 PM 42.1486 -86.9078 83° East 417 480 17,200 1,561 Climbing Chicago Center
Tue 12:11:31 PM 42.1631 -86.7494 83° East 424 488 18,800 1,561 Climbing Chicago Center
Tue 12:12:33 PM 42.1781 -86.5806 83° East 433 498 20,400 1,548 Climbing Chicago Center
Tue 12:13:35 PM 42.1919 -86.4169 83° East 438 504 22,000 1,512 Climbing Chicago Center
Tue 12:14:36 PM 42.2058 -86.2522 83° East 442 509 23,500 1,415 Climbing Chicago Center
Tue 12:15:38 PM 42.2219 -86.0506 84° East 448 516 24,900 1,561 Climbing Chicago Center
Tue 12:16:39 PM 42.2336 -85.8978 84° East 449 517 26,700 1,707 Climbing Chicago Center
Tue 12:17:41 PM 42.2472 -85.7383 83° East 439 505 28,400 1,548 Climbing Chicago Center
Tue 12:18:43 PM 42.2586 -85.5817 84° East 428 493 29,900 1,415 Climbing Chicago Center
Tue 12:19:44 PM 42.2733 -85.3908 84° East 428 493 31,300 1,171 Climbing Chicago Center
Tue 12:20:46 PM 42.2856 -85.2250 84° East 441 507 32,300 1,073 Climbing Chicago Center
Tue 12:21:47 PM 42.2975 -85.0547 85° East 452 520 33,500 1,229 Climbing Chicago Center
Tue 12:22:09 PM 42.3028 -84.9886 84° East 450 518 34,000 585 Climbing Cleveland Center
Tue 12:23:09 PM 42.3128 -84.8375 85° East 450 518 34,300 500 Climbing Cleveland Center
Tue 12:24:09 PM 42.2875 -84.7264 107° East 450 518 35,000 350 Climbing Cleveland Center
Tue 12:25:09 PM 42.2856 -84.4819 91° East 455 524 35,000  Level Cleveland Center
Tue 12:26:09 PM 42.3061 -84.3064 81° East 461 531 35,000  Level Cleveland Center
Tue 12:27:09 PM 42.3303 -84.1364 79° East 461 531 35,000  Level Cleveland Center
Tue 12:28:09 PM 42.3561 -83.9664 78° East 461 531 35,000  Level Cleveland Center
Tue 12:29:09 PM 42.3800 -83.7933 79° East 467 537 35,000  Level Cleveland Center
Tue 12:30:09 PM 42.4078 -83.6175 78° East 467 537 35,000  Level Cleveland Center
Tue 12:31:09 PM 42.4497 -83.4450 72° East 467 537 35,000  Level Cleveland Center
Tue 12:32:09 PM 42.4958 -83.2583 71° East 472 543 35,000  Level Cleveland Center
Tue 12:33:09 PM 42.5414 -83.0883 70° East 477 549 35,000  Level Cleveland Center
Tue 12:34:09 PM 42.5864 -82.9211 70° East 477 549 35,000  Level Cleveland Center
Tue 12:35:09 PM 42.6314 -82.7561 70° East 477 549 35,000  Level Cleveland Center
Tue 12:36:09 PM 42.6764 -82.5825 71° East 472 543 35,000  Level Cleveland Center
Tue 12:37:09 PM 42.7186 -82.4117 71° East 472 543 35,000  Level Cleveland Center
Tue 12:38:09 PM 42.7650 -82.2403 70° East 472 543 35,000  Level Cleveland Center
Tue 12:39:09 PM 42.8069 -82.0661 72° East 477 549 35,000  Level Cleveland Center
Tue 12:40:09 PM 42.8508 -81.8914 71° East 477 549 35,000  Level Cleveland Center
Tue 12:41:40 PM 42.9167 -81.6167 72° East 480 552 35,000  Level Toronto Center
Tue 12:42:40 PM 42.9500 -81.4500 75° East 480 552 35,000  Level Toronto Center
Tue 12:43:40 PM 42.9833 -81.2667 76° East 480 552 35,000  Level Toronto Center
Tue 12:44:40 PM 43.0333 -81.1000 68° East 480 552 35,000  Level Toronto Center
Tue 12:45:40 PM 43.1000 -80.9333 61° Northeast 480 552 35,000  Level Toronto Center
Tue 12:46:40 PM 43.1833 -80.7833 53° Northeast 470 541 35,000  Level Toronto Center
Tue 12:47:40 PM 43.2500 -80.6167 61° Northeast 480 552 35,000  Level Toronto Center
Tue 12:48:40 PM 43.3000 -80.4500 68° East 480 552 35,000  Level Toronto Center
Tue 12:49:40 PM 43.3667 -80.3000 59° Northeast 480 552 35,000  Level Toronto Center
Tue 12:50:40 PM 43.4333 -80.1667 55° Northeast 480 552 35,000  Level Toronto Center
Tue 12:51:40 PM 43.5000 -79.9833 63° Northeast 480 552 35,000  Level Toronto Center
Tue 12:52:40 PM 43.5667 -79.8333 58° Northeast 480 552 35,000  Level Toronto Center
Tue 12:53:40 PM 43.6333 -79.6833 58° Northeast 470 541 35,000  Level Toronto Center
Tue 12:54:40 PM 43.6833 -79.5000 69° East 480 552 35,000  Level Toronto Center
Tue 12:55:40 PM 43.7333 -79.3333 67° East 480 552 35,000  Level Toronto Center
Tue 12:56:40 PM 43.7833 -79.1500 69° East 480 552 35,000  Level Toronto Center
Tue 12:57:40 PM 43.8333 -78.9833 67° East 490 564 35,000  Level Toronto Center
Tue 12:58:40 PM 43.8833 -78.8167 67° East 480 552 35,000  Level Toronto Center
Tue 12:59:40 PM 43.9333 -78.6333 69° East 480 552 35,000  Level Toronto Center
Tue 01:00:40 PM 43.9667 -78.4667 74° East 480 552 35,000  Level Toronto Center
Tue 01:01:40 PM 44.0333 -78.2833 63° Northeast 480 552 35,000  Level Toronto Center
Tue 01:02:40 PM 44.0833 -78.1167 67° East 480 552 35,000  Level Toronto Center
Tue 01:03:40 PM 44.1500 -77.9667 58° Northeast 480 552 35,000  Level Toronto Center
Tue 01:04:40 PM 44.2333 -77.8167 52° Northeast 480 552 35,000 -300 Level Toronto Center
Tue 01:05:40 PM 44.3000 -77.6500 61° Northeast 480 552 34,400 -1,750 Descending Toronto Center
Tue 01:06:40 PM 44.3833 -77.4833 55° Northeast 480 552 31,500 -2,850 Descending Toronto Center
Tue 01:07:40 PM 44.4333 -77.3500 62° Northeast 470 541 28,700 -2,809 Descending Toronto Center
Tue 01:08:14 PM 44.5000 -77.2833 35° Northeast 460 529 27,100 -2,745 Descending Montreal Center
Tue 01:09:14 PM 44.5500 -77.1500 62° Northeast 460 529 24,400 -2,800 Descending Montreal Center
Tue 01:10:14 PM 44.6333 -76.9833 55° Northeast 460 529 21,500 -2,600 Descending Montreal Center
Tue 01:11:14 PM 44.7000 -76.8333 58° Northeast 460 529 19,200 -1,800 Descending Montreal Center
Tue 01:12:14 PM 44.7667 -76.7000 55° Northeast 450 518 17,900 -1,116 Descending Montreal Center
Tue 01:12:40 PM 44.8000 -76.6000 65° Northeast 450 518 17,600 -1,047 Descending Toronto Center
Tue 01:13:40 PM 44.8667 -76.4833 51° Northeast 440 506 16,400 -1,468 Descending Toronto Center
Tue 01:14:14 PM 44.9000 -76.4167 55° Northeast 430 495 15,300 -2,043 Descending Montreal Center
Tue 01:15:14 PM 44.9833 -76.3000 45° Northeast 410 472 13,200 -2,000 Descending Montreal Center
Tue 01:16:14 PM 45.0333 -76.1500 65° Northeast 380 437 11,300 -1,650 Descending Montreal Center
Tue 01:17:14 PM 45.0500 -76.0333 79° East 350 403 9,900 -1,350 Descending Montreal Center
Tue 01:18:14 PM 45.0667 -75.9167 79° East 320 368 8,600 -1,400 Descending Montreal Center
Tue 01:19:14 PM 45.0833 -75.8000 79° East 310 357 7,100 -1,400 Descending Montreal Center
Tue 01:20:14 PM 45.0833 -75.6833 90° East 290 334 5,800 -1,050 Descending Montreal Center
Tue 01:21:14 PM 45.1000 -75.5833 77° East 250 288 5,000 -850 Descending Montreal Center
Tue 01:22:14 PM 45.1167 -75.5167 70° East 220 253 4,100 -950 Descending Montreal Center
Tue 01:23:14 PM 45.1667 -75.4667 35° Northeast 210 242 3,100 -900 Descending Montreal Center
Tue 01:24:14 PM 45.2167 -75.5167 325° Northwest 200 230 2,300 -500 Descending Montreal Center
Tue 01:25:14 PM 45.2500 -75.5667 313° West 190 219 2,100 -550 Descending Montreal Center
Tue 01:26:14 PM 45.2667 -75.6167 295° West 140 161 1,200 -800 Descending Montreal Center
Tue 01:27:14 PM 45.2833 -75.6667 295° West 120 138 500 -700 Descending Montreal Center
Tue 01:29:00 PM 45.3167 -75.6667 317° Northwest  Level FlightAware Approximate
Tue 01:36:00 PM 45.3225 -75.6692 317° Northwest  Level Estimated

Login

Don't have an account? Register now (free) for customized features, flight alerts, and more!